createdAt,value
2018-05-11T00:00:49.145Z,99.99
2018-05-11T00:01:49.098Z,99.99
2018-05-11T00:02:49.063Z,99.99
2018-05-11T00:03:49.052Z,99.99
2018-05-11T00:04:48.983Z,99.99
2018-05-11T00:05:48.939Z,99.99
2018-05-11T00:06:48.894Z,99.99
2018-05-11T00:07:48.860Z,99.99
2018-05-11T00:08:48.819Z,99.99
2018-05-11T00:09:48.803Z,99.99
2018-05-11T00:10:48.753Z,99.99
2018-05-11T00:11:48.703Z,99.99
2018-05-11T00:12:48.661Z,99.99
2018-05-11T00:13:48.612Z,99.99
2018-05-11T00:14:48.595Z,99.99
2018-05-11T00:15:48.539Z,99.99
2018-05-11T00:16:48.498Z,99.99
2018-05-11T00:17:48.464Z,99.99
2018-05-11T00:18:48.417Z,99.99
2018-05-11T00:19:48.400Z,99.99
2018-05-11T00:20:48.330Z,99.99
2018-05-11T00:21:48.295Z,99.99
2018-05-11T00:22:48.256Z,99.99
2018-05-11T00:23:48.224Z,99.99
2018-05-11T00:24:48.203Z,99.99
2018-05-11T00:25:48.132Z,99.99
2018-05-11T00:26:48.087Z,99.99
2018-05-11T00:27:48.060Z,99.99
2018-05-11T00:28:48.010Z,99.99
2018-05-11T00:29:47.977Z,99.99
2018-05-11T00:30:47.957Z,99.99
2018-05-11T00:31:47.896Z,99.99
2018-05-11T00:32:47.851Z,99.99
2018-05-11T00:33:47.809Z,99.99
2018-05-11T00:34:47.760Z,99.99
2018-05-11T00:35:47.753Z,99.99
2018-05-11T00:36:47.685Z,99.99
2018-05-11T00:37:47.647Z,99.99
2018-05-11T00:38:47.599Z,99.99
2018-05-11T00:39:47.561Z,99.99
2018-05-11T00:40:47.547Z,99.99
2018-05-11T00:41:47.488Z,99.99
2018-05-11T00:42:47.451Z,99.99
2018-05-11T00:43:47.403Z,99.99
2018-05-11T00:44:47.364Z,99.99
2018-05-11T00:45:47.320Z,99.99
2018-05-11T00:46:47.311Z,99.99
2018-05-11T00:47:47.231Z,99.99
2018-05-11T00:48:47.196Z,99.99
2018-05-11T00:49:47.161Z,99.99
2018-05-11T00:50:47.126Z,99.99
2018-05-11T00:51:47.072Z,99.99
2018-05-11T00:52:47.060Z,99.99
2018-05-11T00:53:46.999Z,99.99
2018-05-11T00:54:46.963Z,99.99
2018-05-11T00:55:46.929Z,99.99
2018-05-11T00:56:46.876Z,99.99
2018-05-11T00:57:46.860Z,99.99
2018-05-11T00:58:46.817Z,99.99
2018-05-11T00:59:46.748Z,99.99
2018-05-11T01:00:46.707Z,99.99
2018-05-11T01:01:46.675Z,99.99
2018-05-11T01:02:46.638Z,99.99
2018-05-11T01:03:46.619Z,99.99
2018-05-11T01:04:46.548Z,99.99
2018-05-11T01:05:46.508Z,99.99
2018-05-11T01:06:46.465Z,99.99
2018-05-11T01:07:46.441Z,99.99
2018-05-11T01:08:46.392Z,99.99
2018-05-11T01:09:46.368Z,99.99
2018-05-11T01:10:46.303Z,99.99
2018-05-11T01:11:46.260Z,99.99
2018-05-11T01:12:46.222Z,99.99
2018-05-11T01:13:46.184Z,99.99
2018-05-11T01:14:46.178Z,99.99
2018-05-11T01:15:46.108Z,99.99
2018-05-11T01:16:46.063Z,99.99
2018-05-11T01:17:46.020Z,99.99
2018-05-11T01:18:45.984Z,99.99
2018-05-11T01:19:45.930Z,99.99
2018-05-11T01:20:45.929Z,99.99
2018-05-11T01:21:45.863Z,99.99
2018-05-11T01:22:45.821Z,99.99
2018-05-11T01:23:45.777Z,99.99
2018-05-11T01:24:45.743Z,99.99
2018-05-11T01:25:45.695Z,99.99
2018-05-11T01:26:45.689Z,99.99
2018-05-11T01:27:45.623Z,99.99
2018-05-11T01:28:45.574Z,99.99
2018-05-11T01:29:45.534Z,99.99
2018-05-11T01:30:45.486Z,99.99
2018-05-11T01:31:45.448Z,99.99
2018-05-11T01:32:45.436Z,99.99
2018-05-11T01:33:45.374Z,99.99
2018-05-11T01:34:45.335Z,99.99
2018-05-11T01:35:45.292Z,99.99
2018-05-11T01:36:45.250Z,99.99
2018-05-11T01:37:45.238Z,99.99
2018-05-11T01:38:45.165Z,99.99
2018-05-11T01:39:45.157Z,99.99
2018-05-11T01:40:45.085Z,99.99
2018-05-11T01:41:45.042Z,99.99
2018-05-11T01:42:44.994Z,99.99
2018-05-11T01:43:44.986Z,99.99
2018-05-11T01:44:44.923Z,99.99
2018-05-11T01:45:44.879Z,99.99
2018-05-11T01:46:44.846Z,99.99
2018-05-11T01:47:44.808Z,99.99
2018-05-11T01:48:44.789Z,99.99
2018-05-11T01:49:44.734Z,99.99
2018-05-11T01:50:44.666Z,99.99
2018-05-11T01:51:44.640Z,99.99
2018-05-11T01:52:44.592Z,99.99
2018-05-11T01:53:44.555Z,99.99
2018-05-11T01:54:44.547Z,99.99
2018-05-11T01:55:44.468Z,99.99
2018-05-11T01:56:44.429Z,99.99
2018-05-11T01:57:44.393Z,99.99
2018-05-11T01:58:44.356Z,99.99
2018-05-11T01:59:44.315Z,99.99
2018-05-11T02:00:44.300Z,99.99
2018-05-11T02:01:44.222Z,99.99
2018-05-11T02:02:44.179Z,99.99
2018-05-11T02:03:44.148Z,99.99
2018-05-11T02:04:44.108Z,99.99
2018-05-11T02:05:44.060Z,99.99
2018-05-11T02:06:44.051Z,99.99
2018-05-11T02:07:43.975Z,99.99
2018-05-11T02:08:43.939Z,99.99
2018-05-11T02:09:43.900Z,99.99
2018-05-11T02:10:43.861Z,99.99
2018-05-11T02:11:43.811Z,99.99
2018-05-11T02:12:43.803Z,99.99
2018-05-11T02:13:43.741Z,99.99
2018-05-11T02:14:43.701Z,99.99
2018-05-11T02:15:43.658Z,99.99
2018-05-11T02:16:43.617Z,99.99
2018-05-11T02:17:43.598Z,99.99
2018-05-11T02:18:43.561Z,99.99
2018-05-11T02:19:43.483Z,99.99
2018-05-11T02:20:43.450Z,99.99
2018-05-11T02:21:43.412Z,99.99
2018-05-11T02:22:43.379Z,99.99
2018-05-11T02:23:43.359Z,99.99
2018-05-11T02:24:43.292Z,99.99
2018-05-11T02:25:43.246Z,99.99
2018-05-11T02:26:43.193Z,99.99
2018-05-11T02:27:43.171Z,99.99
2018-05-11T02:28:43.120Z,99.99
2018-05-11T02:29:43.100Z,99.99
2018-05-11T02:30:43.036Z,99.99
2018-05-11T02:31:43.002Z,99.99
2018-05-11T02:32:42.954Z,99.99
2018-05-11T02:33:42.915Z,99.99
2018-05-11T02:34:42.909Z,99.99
2018-05-11T02:35:42.837Z,99.99
2018-05-11T02:36:42.797Z,99.99
2018-05-11T02:37:42.752Z,99.99
2018-05-11T02:38:42.707Z,99.99
2018-05-11T02:39:42.661Z,99.99
2018-05-11T02:40:42.655Z,99.99
2018-05-11T02:41:42.587Z,99.99
2018-05-11T02:42:42.553Z,99.99
2018-05-11T02:43:42.568Z,99.99
2018-05-11T02:44:42.463Z,99.99
2018-05-11T02:45:42.425Z,99.99
2018-05-11T02:46:42.429Z,99.99
2018-05-11T02:47:42.355Z,99.99
2018-05-11T02:48:42.303Z,99.99
2018-05-11T02:49:42.259Z,99.99
2018-05-11T02:50:42.289Z,99.99
2018-05-11T02:51:42.182Z,99.99
2018-05-11T02:52:42.163Z,99.99
2018-05-11T02:53:42.096Z,99.99
2018-05-11T02:54:42.061Z,99.99
2018-05-11T02:55:42.022Z,99.99
2018-05-11T02:56:41.978Z,99.99
2018-05-11T02:57:41.955Z,99.99
2018-05-11T02:58:41.891Z,99.99
2018-05-11T02:59:41.855Z,99.99
2018-05-11T03:00:41.811Z,99.99
2018-05-11T03:01:41.765Z,99.99
2018-05-11T03:02:41.749Z,99.99
2018-05-11T03:03:41.678Z,99.99
2018-05-11T03:04:41.741Z,99.99
2018-05-11T03:05:41.605Z,99.99
2018-05-11T03:06:41.669Z,99.99
2018-05-11T03:07:41.615Z,99.99
2018-05-11T03:08:41.507Z,99.99
2018-05-11T03:09:41.444Z,99.99
2018-05-11T03:10:41.392Z,99.99
2018-05-11T03:11:41.348Z,99.99
2018-05-11T03:12:41.313Z,99.99
2018-05-11T03:13:41.282Z,99.99
2018-05-11T03:14:41.274Z,99.99
2018-05-11T03:15:41.185Z,99.99
2018-05-11T03:16:41.149Z,99.99
2018-05-11T03:17:41.108Z,99.99
2018-05-11T03:18:41.146Z,99.99
2018-05-11T03:19:41.059Z,99.99
2018-05-11T03:20:40.985Z,99.99
2018-05-11T03:21:40.943Z,99.99
2018-05-11T03:22:40.895Z,99.99
2018-05-11T03:23:40.864Z,99.99
2018-05-11T03:24:40.847Z,99.99
2018-05-11T03:25:40.778Z,99.99
2018-05-11T03:26:40.752Z,99.99
2018-05-11T03:27:40.703Z,99.99
2018-05-11T03:28:40.660Z,99.99
2018-05-11T03:29:40.613Z,99.99
2018-05-11T03:30:40.593Z,99.99
2018-05-11T03:31:40.540Z,99.99
2018-05-11T03:32:40.498Z,99.99
2018-05-11T03:33:40.449Z,99.99
2018-05-11T03:34:40.432Z,99.99
2018-05-11T03:35:40.360Z,99.99
2018-05-11T03:36:40.326Z,99.99
2018-05-11T03:37:40.286Z,99.99
2018-05-11T03:38:40.246Z,99.99
2018-05-11T03:39:40.239Z,99.99
2018-05-11T03:40:40.163Z,99.99
2018-05-11T03:41:40.118Z,99.99
2018-05-11T03:42:40.072Z,99.99
2018-05-11T03:43:40.032Z,99.99
2018-05-11T03:44:40.021Z,99.99
2018-05-11T03:45:39.956Z,99.99
2018-05-11T03:46:39.935Z,99.99
2018-05-11T03:47:39.871Z,99.99
2018-05-11T03:48:39.832Z,99.99
2018-05-11T03:49:39.814Z,99.99
2018-05-11T03:50:39.750Z,99.99
2018-05-11T03:51:39.713Z,99.99
2018-05-11T03:52:39.670Z,99.99
2018-05-11T03:53:39.622Z,99.99
2018-05-11T03:54:39.605Z,99.99
2018-05-11T03:55:39.540Z,99.99
2018-05-11T03:56:39.495Z,99.99
2018-05-11T03:57:39.461Z,99.99
2018-05-11T03:58:39.429Z,99.99
2018-05-11T03:59:39.381Z,99.99
2018-05-11T04:00:39.368Z,99.99
2018-05-11T04:01:39.293Z,99.99
2018-05-11T04:02:39.249Z,99.99
2018-05-11T04:03:39.215Z,99.99
2018-05-11T04:04:39.174Z,99.99
2018-05-11T04:05:39.127Z,99.99
2018-05-11T04:06:39.125Z,99.99
2018-05-11T04:07:39.043Z,99.99
2018-05-11T04:08:39.067Z,99.99
2018-05-11T04:09:38.962Z,99.99
2018-05-11T04:10:38.929Z,99.99
2018-05-11T04:11:38.889Z,99.99
2018-05-11T04:12:38.863Z,99.99
2018-05-11T04:13:38.794Z,99.99
2018-05-11T04:14:38.749Z,99.99
2018-05-11T04:15:38.716Z,99.99
2018-05-11T04:16:38.677Z,99.99
2018-05-11T04:17:38.715Z,99.99
2018-05-11T04:18:38.596Z,99.99
2018-05-11T04:19:38.594Z,99.99
2018-05-11T04:20:38.513Z,99.99
2018-05-11T04:21:38.473Z,99.99
2018-05-11T04:22:38.468Z,99.99
2018-05-11T04:23:38.401Z,99.99
2018-05-11T04:24:38.349Z,99.99
2018-05-11T04:25:38.301Z,99.99
2018-05-11T04:26:38.259Z,99.99
2018-05-11T04:27:38.218Z,99.99
2018-05-11T04:28:38.210Z,99.99
2018-05-11T04:29:38.141Z,99.99
2018-05-11T04:30:38.106Z,99.99
2018-05-11T04:31:38.063Z,99.99
2018-05-11T04:32:38.024Z,99.99
2018-05-11T04:33:37.974Z,99.99
2018-05-11T04:34:37.954Z,99.99
2018-05-11T04:35:37.899Z,99.99
2018-05-11T04:36:37.860Z,99.99
2018-05-11T04:37:37.815Z,99.99
2018-05-11T04:38:37.769Z,99.99
2018-05-11T04:39:37.761Z,99.99
2018-05-11T04:40:37.690Z,99.99
2018-05-11T04:41:37.647Z,99.99
2018-05-11T04:42:37.614Z,99.99
2018-05-11T04:43:37.569Z,99.99
2018-05-11T04:44:37.564Z,99.99
2018-05-11T04:45:37.487Z,99.99
2018-05-11T04:46:37.442Z,99.99
2018-05-11T04:47:37.400Z,99.99
2018-05-11T04:48:37.360Z,99.99
2018-05-11T04:49:37.323Z,99.99
2018-05-11T04:50:37.323Z,99.99
2018-05-11T04:51:37.236Z,99.99
2018-05-11T04:52:37.199Z,99.99
2018-05-11T04:53:37.166Z,99.99
2018-05-11T04:54:37.122Z,99.99
2018-05-11T04:55:37.081Z,99.99
2018-05-11T04:56:37.063Z,98.32
2018-05-11T04:57:37.000Z,96.70
2018-05-11T04:58:36.947Z,95.12
2018-05-11T04:59:36.911Z,93.55
2018-05-11T05:00:36.876Z,93.07
2018-05-11T05:01:36.834Z,91.64
2018-05-11T05:02:36.827Z,91.83
2018-05-11T05:03:36.758Z,91.02
2018-05-11T05:04:36.716Z,90.25
2018-05-11T05:05:36.672Z,89.59
2018-05-11T05:06:36.628Z,88.77
2018-05-11T05:07:36.643Z,87.72
2018-05-11T05:08:36.565Z,87.53
2018-05-11T05:09:36.520Z,86.29
2018-05-11T05:10:36.474Z,85.71
2018-05-11T05:11:36.439Z,85.47
2018-05-11T05:12:36.440Z,85.57
2018-05-11T05:13:36.356Z,84.80
2018-05-11T05:14:36.332Z,84.89
2018-05-11T05:15:36.289Z,84.70
2018-05-11T05:16:36.248Z,84.36
2018-05-11T05:17:36.205Z,83.75
2018-05-11T05:18:36.186Z,83.89
2018-05-11T05:19:36.123Z,82.64
2018-05-11T05:20:36.101Z,83.56
2018-05-11T05:21:36.058Z,84.13
2018-05-11T05:22:36.018Z,85.57
2018-05-11T05:23:35.968Z,86.29
2018-05-11T05:24:35.969Z,86.67
2018-05-11T05:25:35.905Z,86.52
2018-05-11T05:26:35.862Z,85.89
2018-05-11T05:27:35.822Z,84.27
2018-05-11T05:28:35.805Z,82.93
2018-05-11T05:29:35.747Z,82.49
2018-05-11T05:30:35.714Z,80.24
2018-05-11T05:31:35.678Z,79.28
2018-05-11T05:32:35.630Z,78.45
2018-05-11T05:33:35.617Z,76.82
2018-05-11T05:34:35.561Z,76.54
2018-05-11T05:35:35.522Z,76.48
2018-05-11T05:36:35.485Z,76.19
2018-05-11T05:37:35.451Z,74.22
2018-05-11T05:38:35.429Z,74.12
2018-05-11T05:39:35.374Z,73.93
2018-05-11T05:40:35.336Z,73.35
2018-05-11T05:41:35.302Z,72.68
2018-05-11T05:42:35.252Z,73.16
2018-05-11T05:43:35.218Z,73.49
2018-05-11T05:44:35.214Z,72.63
2018-05-11T05:45:35.147Z,72.63
2018-05-11T05:46:35.137Z,72.14
2018-05-11T05:47:35.087Z,72.18
2018-05-11T05:48:35.047Z,72.18
2018-05-11T05:49:35.041Z,71.28
2018-05-11T05:50:34.958Z,72.47
2018-05-11T05:51:34.937Z,71.22
2018-05-11T05:52:34.885Z,72.08
2018-05-11T05:53:34.857Z,71.70
2018-05-11T05:54:34.826Z,71.37
2018-05-11T05:55:34.798Z,71.80
2018-05-11T05:56:34.746Z,71.51
2018-05-11T05:57:34.712Z,70.93
2018-05-11T05:58:34.704Z,70.84
2018-05-11T05:59:34.682Z,71.06
2018-05-11T06:00:34.606Z,70.23
2018-05-11T06:01:34.568Z,66.61
2018-05-11T06:02:34.587Z,66.46
2018-05-11T06:03:34.488Z,65.78
2018-05-11T06:04:34.461Z,65.97
2018-05-11T06:05:34.454Z,64.79
2018-05-11T06:06:34.397Z,62.32
2018-05-11T06:07:34.360Z,61.87
2018-05-11T06:08:34.359Z,60.23
2018-05-11T06:09:34.287Z,60.77
2018-05-11T06:10:34.243Z,62.03
2018-05-11T06:11:34.247Z,61.55
2018-05-11T06:12:34.188Z,61.80
2018-05-11T06:13:34.146Z,61.83
2018-05-11T06:14:34.116Z,61.87
2018-05-11T06:15:34.068Z,63.38
2018-05-11T06:16:34.070Z,63.86
2018-05-11T06:17:34.028Z,63.99
2018-05-11T06:18:33.975Z,63.67
2018-05-11T06:19:33.942Z,65.72
2018-05-11T06:20:33.913Z,68.12
2018-05-11T06:21:33.864Z,68.66
2018-05-11T06:22:33.856Z,69.27
2018-05-11T06:23:33.798Z,67.93
2018-05-11T06:24:33.757Z,67.29
2018-05-11T06:25:33.733Z,66.27
2018-05-11T06:26:33.725Z,64.37
2018-05-11T06:27:33.665Z,64.21
2018-05-11T06:28:33.631Z,62.60
2018-05-11T06:29:33.598Z,61.16
2018-05-11T06:30:33.560Z,60.80
2018-05-11T06:31:33.532Z,60.74
2018-05-11T06:32:33.518Z,58.42
2018-05-11T06:33:33.569Z,59.84
2018-05-11T06:34:33.466Z,59.97
2018-05-11T06:35:33.384Z,58.04
2018-05-11T06:36:33.444Z,59.00
2018-05-11T06:37:35.054Z,58.19
2018-05-11T06:38:33.283Z,56.68
2018-05-11T06:39:33.244Z,54.07
2018-05-11T06:40:33.261Z,57.31
2018-05-11T06:41:33.170Z,60.91
2018-05-11T06:42:33.175Z,60.91
2018-05-11T06:43:33.112Z,62.77
2018-05-11T06:44:33.086Z,62.74
2018-05-11T06:45:33.110Z,61.35
2018-05-11T06:46:33.003Z,59.23
2018-05-11T06:47:32.975Z,59.97
2018-05-11T06:48:32.959Z,60.87
2018-05-11T06:49:32.908Z,59.42
2018-05-11T06:50:32.870Z,55.59
2018-05-11T06:51:32.860Z,55.01
2018-05-11T06:52:32.819Z,54.24
2018-05-11T06:53:32.765Z,56.85
2018-05-11T06:54:32.757Z,57.79
2018-05-11T06:55:32.700Z,58.14
2018-05-11T06:56:32.660Z,55.94
2018-05-11T06:57:32.635Z,56.40
2018-05-11T06:58:32.597Z,57.20
2018-05-11T06:59:32.586Z,56.88
2018-05-11T07:00:32.526Z,59.17
2018-05-11T07:01:32.537Z,60.78
2018-05-11T07:02:32.539Z,61.52
2018-05-11T07:03:32.431Z,59.33
2018-05-11T07:04:32.422Z,59.17
2018-05-11T07:05:32.355Z,57.39
2018-05-11T07:06:32.326Z,56.56
2018-05-11T07:07:32.291Z,56.49
2018-05-11T07:08:32.258Z,56.85
2018-05-11T07:09:42.084Z,57.75
2018-05-11T07:10:32.201Z,58.59
2018-05-11T07:11:32.152Z,58.04
2018-05-11T07:12:32.134Z,57.65
2018-05-11T07:13:32.110Z,58.14
2018-05-11T07:14:32.062Z,57.68
2018-05-11T07:15:32.048Z,55.76
2018-05-11T07:16:31.986Z,56.88
2018-05-11T07:17:31.956Z,56.65
2018-05-11T07:18:31.939Z,53.78
2018-05-11T07:19:31.932Z,54.14
2018-05-11T07:20:31.861Z,55.54
2018-05-11T07:21:31.851Z,57.05
2018-05-11T07:22:31.807Z,59.37
2018-05-11T07:23:31.751Z,61.42
2018-05-11T07:24:31.728Z,59.65
2018-05-11T07:25:31.694Z,57.87
2018-05-11T07:26:31.679Z,56.62
2018-05-11T07:27:31.628Z,56.88
2018-05-11T07:28:31.599Z,57.75
2018-05-11T07:29:31.553Z,58.85
2018-05-11T07:30:31.524Z,59.81
2018-05-11T07:31:41.115Z,59.81
2018-05-11T07:32:31.462Z,58.17
2018-05-11T07:33:41.622Z,55.85
2018-05-11T07:34:31.384Z,56.66
2018-05-11T07:35:31.374Z,57.69
2018-05-11T07:36:31.334Z,58.04
2018-05-11T07:37:31.353Z,55.34
2018-05-11T07:38:31.269Z,54.88
2018-05-11T07:39:31.233Z,56.84
2018-05-11T07:40:31.204Z,55.04
2018-05-11T07:41:31.160Z,54.43
2018-05-11T07:42:31.133Z,55.36
2018-05-11T07:43:31.220Z,55.66
2018-05-11T07:44:31.061Z,56.88
2018-05-11T07:45:31.036Z,56.72
2018-05-11T07:46:30.994Z,56.59
2018-05-11T07:47:31.012Z,56.59
2018-05-11T07:48:30.939Z,55.92
2018-05-11T07:49:30.915Z,56.85
2018-05-11T07:50:30.875Z,57.72
2018-05-11T07:51:30.840Z,58.01
2018-05-11T07:52:30.802Z,58.08
2018-05-11T07:53:30.802Z,58.88
2018-05-11T07:54:30.737Z,58.20
2018-05-11T07:55:30.711Z,57.46
2018-05-11T07:56:41.142Z,57.72
2018-05-11T07:57:30.656Z,56.91
2018-05-11T07:58:30.654Z,57.59
2018-05-11T07:59:30.591Z,56.16
2018-05-11T08:00:30.564Z,53.97
2018-05-11T08:01:30.516Z,53.81
2018-05-11T08:02:30.497Z,53.73
2018-05-11T08:03:30.483Z,56.98
2018-05-11T08:04:30.424Z,57.98
2018-05-11T08:05:30.400Z,59.66
2018-05-11T08:06:30.390Z,62.29
2018-05-11T08:07:30.352Z,64.76
2018-05-11T08:08:30.311Z,65.40
2018-05-11T08:09:30.286Z,66.26
2018-05-11T08:10:30.240Z,66.39
2018-05-11T08:11:30.205Z,65.17
2018-05-11T08:12:30.181Z,63.22
2018-05-11T08:13:30.166Z,61.26
2018-05-11T08:14:30.182Z,63.70
2018-05-11T08:15:30.074Z,66.36
2018-05-11T08:16:30.036Z,66.36
2018-05-11T08:17:30.015Z,67.38
2018-05-11T08:18:29.977Z,69.20
2018-05-11T08:19:29.971Z,69.17
2018-05-11T08:20:40.189Z,69.56
2018-05-11T08:21:29.944Z,70.90
2018-05-11T08:22:29.840Z,70.03
2018-05-11T08:23:29.819Z,70.51
2018-05-11T08:24:29.827Z,69.72
2018-05-11T08:25:29.796Z,66.23
2018-05-11T08:26:29.720Z,65.88
2018-05-11T08:27:29.686Z,61.58
2018-05-11T08:28:29.670Z,59.30
2018-05-11T08:29:29.632Z,58.14
2018-05-11T08:30:29.583Z,60.16
2018-05-11T08:31:29.541Z,59.75
2018-05-11T08:32:29.517Z,59.01
2018-05-11T08:33:29.484Z,60.62
2018-05-11T08:34:29.485Z,62.16
2018-05-11T08:35:29.421Z,61.19
2018-05-11T08:36:29.452Z,60.91
2018-05-11T08:37:29.352Z,61.43
2018-05-11T08:38:29.323Z,62.64
2018-05-11T08:39:29.321Z,65.40
2018-05-11T08:40:29.254Z,67.03
2018-05-11T08:41:29.220Z,66.33
2018-05-11T08:42:29.192Z,67.70
2018-05-11T08:43:29.153Z,66.87
2018-05-11T08:44:29.144Z,66.46
2018-05-11T08:45:29.091Z,62.87
2018-05-11T08:46:29.050Z,60.61
2018-05-11T08:47:29.039Z,56.91
2018-05-11T08:48:28.995Z,56.29
2018-05-11T08:49:28.990Z,53.95
2018-05-11T08:50:28.931Z,55.05
2018-05-11T08:51:28.885Z,56.88
2018-05-11T08:52:28.886Z,57.75
2018-05-11T08:53:28.837Z,57.10
2018-05-11T08:54:28.836Z,57.71
2018-05-11T08:55:28.775Z,55.59
2018-05-11T08:56:28.736Z,56.84
2018-05-11T08:57:28.710Z,56.48
2018-05-11T08:58:28.677Z,57.06
2018-05-11T08:59:28.669Z,54.43
2018-05-11T09:00:28.621Z,54.21
2018-05-11T09:01:28.601Z,56.47
2018-05-11T09:02:28.566Z,58.27
2018-05-11T09:03:28.555Z,61.97
2018-05-11T09:04:28.534Z,62.35
2018-05-11T09:05:28.494Z,62.57
2018-05-11T09:06:28.437Z,61.45
2018-05-11T09:07:28.424Z,60.68
2018-05-11T09:08:28.375Z,60.36
2018-05-11T09:09:28.370Z,60.84
2018-05-11T09:10:28.315Z,60.62
2018-05-11T09:11:28.271Z,61.81
2018-05-11T09:12:28.243Z,64.76
2018-05-11T09:13:28.215Z,63.89
2018-05-11T09:14:28.212Z,62.22
2018-05-11T09:15:28.142Z,60.10
2018-05-11T09:16:28.121Z,58.69
2018-05-11T09:17:28.086Z,60.96
2018-05-11T09:18:28.060Z,56.33
2018-05-11T09:19:28.054Z,55.73
2018-05-11T09:20:27.996Z,55.73
2018-05-11T09:21:28.052Z,55.60
2018-05-11T09:22:27.950Z,56.59
2018-05-11T09:23:27.891Z,56.79
2018-05-11T09:24:27.891Z,56.57
2018-05-11T09:25:27.852Z,57.31
2018-05-11T09:26:27.799Z,58.95
2018-05-11T09:27:27.793Z,58.49
2018-05-11T09:28:27.750Z,56.88
2018-05-11T09:29:27.739Z,57.52
2018-05-11T09:30:27.692Z,53.83
2018-05-11T09:31:27.660Z,54.57
2018-05-11T09:32:27.635Z,54.76
2018-05-11T09:33:27.591Z,57.37
2018-05-11T09:34:27.647Z,57.68
2018-05-11T09:35:27.532Z,54.11
2018-05-11T09:36:27.551Z,55.59
2018-05-11T09:37:27.481Z,54.17
2018-05-11T09:38:27.455Z,53.97
2018-05-11T09:39:27.496Z,54.87
2018-05-11T09:40:27.389Z,52.21
2018-05-11T09:41:27.364Z,53.85
2018-05-11T09:42:27.343Z,53.47
2018-05-11T09:43:27.307Z,54.55
2018-05-11T09:44:27.310Z,53.52
2018-05-11T09:45:27.244Z,52.07
2018-05-11T09:46:27.220Z,53.37
2018-05-11T09:47:27.176Z,53.63
2018-05-11T09:48:27.168Z,54.14
2018-05-11T09:49:27.188Z,54.17
2018-05-11T09:50:27.101Z,53.30
2018-05-11T09:51:27.077Z,54.58
2018-05-11T09:52:27.046Z,52.26
2018-05-11T09:53:27.022Z,51.95
2018-05-11T09:54:27.023Z,50.98
2018-05-11T09:55:26.963Z,53.59
2018-05-11T09:56:26.937Z,52.17
2018-05-11T09:57:26.912Z,51.13
2018-05-11T09:58:26.868Z,52.97
2018-05-11T09:59:26.888Z,50.67
2018-05-11T10:00:26.820Z,49.99
2018-05-11T10:01:26.779Z,50.13
2018-05-11T10:02:26.752Z,52.36
2018-05-11T10:03:26.741Z,51.81
2018-05-11T10:04:26.729Z,53.19
2018-05-11T10:05:26.673Z,52.46
2018-05-11T10:06:26.658Z,49.41
2018-05-11T10:07:26.615Z,50.55
2018-05-11T10:08:26.595Z,51.59
2018-05-11T10:09:26.560Z,52.89
2018-05-11T10:10:26.559Z,54.18
2018-05-11T10:11:26.510Z,56.21
2018-05-11T10:12:26.485Z,56.05
2018-05-11T10:13:26.456Z,57.73
2018-05-11T10:14:26.426Z,59.37
2018-05-11T10:15:26.385Z,59.47
2018-05-11T10:16:26.557Z,59.66
2018-05-11T10:17:26.334Z,60.17
2018-05-11T10:18:26.314Z,56.63
2018-05-11T10:19:26.275Z,57.18
2018-05-11T10:20:26.244Z,58.85
2018-05-11T10:21:26.240Z,57.79
2018-05-11T10:22:26.178Z,58.05
2018-05-11T10:23:26.161Z,58.85
2018-05-11T10:24:26.122Z,57.34
2018-05-11T10:25:26.097Z,57.53
2018-05-11T10:26:26.088Z,55.89
2018-05-11T10:27:26.034Z,55.51
2018-05-11T10:28:25.994Z,56.82
2018-05-11T10:29:25.959Z,57.37
2018-05-11T10:30:25.949Z,58.27
2018-05-11T10:31:25.940Z,59.14
2018-05-11T10:32:25.889Z,58.11
2018-05-11T10:33:25.839Z,57.43
2018-05-11T10:34:25.886Z,58.08
2018-05-11T10:35:25.791Z,57.86
2018-05-11T10:36:25.785Z,59.11
2018-05-11T10:37:25.727Z,58.75
2018-05-11T10:38:25.695Z,57.92
2018-05-11T10:39:25.658Z,56.85
2018-05-11T10:40:25.624Z,55.82
2018-05-11T10:41:25.621Z,57.29
2018-05-11T10:42:36.814Z,55.10
2018-05-11T10:43:25.541Z,54.58
2018-05-11T10:44:25.543Z,50.65
2018-05-11T10:45:25.473Z,48.32
2018-05-11T10:46:25.460Z,49.27
2018-05-11T10:47:25.422Z,50.40
2018-05-11T10:48:25.431Z,51.05
2018-05-11T10:49:25.358Z,51.15
2018-05-11T10:50:25.330Z,51.75
2018-05-11T10:51:25.316Z,52.53
2018-05-11T10:52:25.273Z,51.99
2018-05-11T10:53:25.242Z,53.22
2018-05-11T10:54:25.213Z,53.53
2018-05-11T10:55:25.186Z,53.78
2018-05-11T10:56:25.178Z,52.53
2018-05-11T10:57:25.208Z,51.10
2018-05-11T10:58:25.095Z,49.39
2018-05-11T10:59:25.106Z,50.18
2018-05-11T11:00:25.064Z,50.62
2018-05-11T11:01:25.049Z,49.29
2018-05-11T11:02:25.034Z,47.16
2018-05-11T11:03:24.948Z,46.17
2018-05-11T11:04:24.919Z,45.98
2018-05-11T11:05:24.904Z,46.78
2018-05-11T11:06:24.909Z,49.29
2018-05-11T11:07:24.855Z,48.76
2018-05-11T11:08:24.818Z,51.05
2018-05-11T11:09:24.781Z,52.55
2018-05-11T11:10:24.747Z,52.64
2018-05-11T11:11:24.803Z,52.06
2018-05-11T11:12:24.714Z,51.77
2018-05-11T11:13:24.681Z,53.74
2018-05-11T11:14:24.731Z,54.35
2018-05-11T11:15:24.647Z,52.71
2018-05-11T11:16:24.584Z,53.48
2018-05-11T11:17:24.598Z,55.02
2018-05-11T11:18:24.516Z,53.00
2018-05-11T11:19:24.518Z,53.55
2018-05-11T11:20:24.478Z,53.48
2018-05-11T11:21:24.441Z,52.61
2018-05-11T11:22:24.419Z,52.93
2018-05-11T11:23:24.377Z,50.32
2018-05-11T11:24:24.368Z,51.22
2018-05-11T11:25:24.324Z,50.06
2018-05-11T11:26:24.322Z,50.93
2018-05-11T11:27:24.319Z,51.15
2018-05-11T11:28:24.238Z,50.71
2018-05-11T11:29:24.196Z,50.93
2018-05-11T11:30:24.171Z,50.40
2018-05-11T11:31:24.133Z,53.67
2018-05-11T11:32:24.136Z,51.97
2018-05-11T11:33:24.077Z,51.36
2018-05-11T11:34:24.064Z,52.25
2018-05-11T11:35:24.005Z,50.98
2018-05-11T11:36:24.008Z,51.94
2018-05-11T11:37:23.955Z,51.97
2018-05-11T11:38:23.927Z,52.13
2018-05-11T11:39:23.900Z,52.59
2018-05-11T11:40:23.868Z,53.67
2018-05-11T11:41:23.829Z,54.13
2018-05-11T11:42:23.825Z,53.45
2018-05-11T11:43:23.771Z,54.20
2018-05-11T11:44:23.744Z,53.62
2018-05-11T11:45:23.772Z,53.29
2018-05-11T11:46:23.699Z,53.51
2018-05-11T11:47:23.693Z,52.19
2018-05-11T11:48:23.622Z,49.51
2018-05-11T11:49:23.595Z,49.53
2018-05-11T11:50:23.557Z,47.38
2018-05-11T11:51:23.546Z,47.38
2018-05-11T11:52:23.519Z,49.96
2018-05-11T11:53:33.337Z,51.63
2018-05-11T11:54:23.452Z,50.79
2018-05-11T11:55:23.418Z,48.37
2018-05-11T11:56:23.425Z,49.53
2018-05-11T11:57:23.407Z,48.79
2018-05-11T11:58:23.357Z,48.59
2018-05-11T11:59:23.291Z,48.39
2018-05-11T12:00:23.273Z,49.44
2018-05-11T12:01:23.265Z,50.71
2018-05-11T12:02:23.214Z,48.52
2018-05-11T12:03:23.186Z,48.39
2018-05-11T12:04:23.188Z,48.37
2018-05-11T12:05:23.121Z,51.29
2018-05-11T12:06:23.096Z,48.42
2018-05-11T12:07:23.066Z,48.83
2018-05-11T12:08:23.042Z,47.19
2018-05-11T12:09:23.043Z,46.70
2018-05-11T12:10:23.023Z,44.87
2018-05-11T12:11:22.959Z,44.67
2018-05-11T12:12:22.927Z,43.78
2018-05-11T12:13:33.357Z,45.01
2018-05-11T12:14:22.892Z,45.01
2018-05-11T12:15:22.908Z,45.79
2018-05-11T12:16:22.833Z,45.09
2018-05-11T12:17:22.796Z,45.45
2018-05-11T12:18:32.887Z,45.65
2018-05-11T12:19:22.747Z,46.25
2018-05-11T12:20:22.923Z,44.51
2018-05-11T12:21:22.679Z,45.00
2018-05-11T12:22:22.658Z,45.28
2018-05-11T12:23:22.633Z,45.01
2018-05-11T12:24:22.635Z,45.98
2018-05-11T12:25:22.596Z,46.08
2018-05-11T12:26:22.689Z,43.93
2018-05-11T12:27:22.526Z,43.45
2018-05-11T12:28:22.497Z,44.95
2018-05-11T12:29:22.491Z,45.14
2018-05-11T12:30:22.483Z,45.07
2018-05-11T12:31:22.440Z,45.36
2018-05-11T12:32:22.418Z,45.24
2018-05-11T12:33:22.397Z,46.49
2018-05-11T12:34:32.417Z,46.88
2018-05-11T12:35:22.314Z,47.94
2018-05-11T12:36:22.310Z,46.59
2018-05-11T12:37:22.249Z,46.97
2018-05-11T12:38:22.214Z,46.11
2018-05-11T12:39:22.196Z,46.01
2018-05-11T12:40:22.176Z,45.99
2018-05-11T12:41:22.190Z,45.99
2018-05-11T12:42:31.067Z,47.82
2018-05-11T12:43:22.087Z,47.27
2018-05-11T12:44:22.053Z,47.14
2018-05-11T12:45:22.043Z,45.34
2018-05-11T12:46:22.017Z,44.66
2018-05-11T12:47:22.034Z,43.79
2018-05-11T12:48:21.940Z,43.70
2018-05-11T12:49:21.922Z,45.26
2018-05-11T12:50:21.929Z,44.29
2018-05-11T12:51:21.887Z,44.95
2018-05-11T12:52:21.908Z,46.97